Time;durP1;ratioP1;P1;durP2;ratioP2;P2;SDS_P1;SDS_P2;PMS_P1;PMS_P2;Temp;Humidity;BMP_temperature;BMP_pressure;BME280_temperature;BME280_humidity;BME280_pressure;Samples;Min_cycle;Max_cycle;Signal;HPM_P1;HPM_P2
2021/03/23 08:39:13;;;;;;;23.23;9.68;;;10.00;50.40;;;;;;4892995;29;20120;-64
2021/03/23 08:42:08;;;;;;;27.08;10.05;;;10.00;50.20;;;;;;4877866;29;20051;-63
2021/03/23 08:44:39;;;;;;;22.48;9.20;;;10.20;50.20;;;;;;4908546;23;20054;-63
2021/03/23 08:47:17;;;;;;;22.25;9.85;;;10.60;49.70;;;;;;4954005;28;20031;-64
2021/03/23 08:49:43;;;;;;;22.65;8.93;;;10.80;48.90;;;;;;4952212;28;20035;-63
2021/03/23 08:52:35;;;;;;;23.13;9.55;;;11.00;48.40;;;;;;4949772;28;20506;-62
2021/03/23 08:55:01;;;;;;;23.52;9.80;;;11.20;48.00;;;;;;4938872;28;20043;-62
2021/03/23 08:57:48;;;;;;;29.42;10.32;;;11.40;47.60;;;;;;4953861;29;20043;-62
2021/03/23 09:00:37;;;;;;;21.35;10.50;;;11.70;46.90;;;;;;4952505;29;20488;-62
2021/03/23 09:03:09;;;;;;;22.35;10.35;;;11.90;46.40;;;;;;4949555;29;20177;-65
2021/03/23 09:05:50;;;;;;;22.70;9.73;;;12.20;45.80;;;;;;4951683;29;20043;-64
2021/03/23 09:08:39;;;;;;;23.33;9.80;;;12.40;45.20;;;;;;4942286;29;20134;-64
2021/03/23 09:11:07;;;;;;;19.60;8.65;;;12.50;44.90;;;;;;4931141;29;20550;-64
2021/03/23 09:13:36;;;;;;;20.98;10.50;;;12.50;44.50;;;;;;4952882;29;20054;-63
2021/03/23 09:16:43;;;;;;;22.92;9.77;;;12.40;44.70;;;;;;4953124;29;20031;-65
2021/03/23 09:19:09;;;;;;;17.67;9.18;;;12.30;45.00;;;;;;4952243;29;20468;-63
2021/03/23 09:21:57;;;;;;;20.70;10.23;;;12.30;44.70;;;;;;4945521;29;20067;-63
2021/03/23 09:24:30;;;;;;;22.98;9.48;;;12.10;45.40;;;;;;4932819;29;20039;-62
2021/03/23 09:26:57;;;;;;;22.42;9.63;;;12.00;45.50;;;;;;4951698;29;20067;-66
2021/03/23 09:29:41;;;;;;;26.85;8.95;;;11.70;46.00;;;;;;4929319;29;20039;-64
2021/03/23 09:32:14;;;;;;;23.58;9.63;;;11.40;46.80;;;;;;4933000;29;20395;-64
2021/03/23 09:35:24;;;;;;;22.48;9.32;;;11.40;47.20;;;;;;4950460;28;20396;-63
2021/03/23 09:38:18;;;;;;;28.17;10.32;;;11.50;47.30;;;;;;4934509;29;20040;-64
2021/03/23 09:40:55;;;;;;;20.95;9.10;;;12.00;46.40;;;;;;4941430;29;20176;-63
2021/03/23 09:43:38;;;;;;;25.60;10.13;;;12.00;46.20;;;;;;4938255;29;20046;-62
2021/03/23 09:46:13;;;;;;;24.50;9.43;;;12.40;46.10;;;;;;4951916;29;20051;-64
2021/03/23 09:49:15;;;;;;;22.90;9.45;;;12.60;44.90;;;;;;4936308;29;20035;-62
2021/03/23 09:51:45;;;;;;;23.52;10.00;;;12.80;44.60;;;;;;4958727;28;20035;-64
2021/03/23 09:54:26;;;;;;;22.73;10.48;;;12.80;43.20;;;;;;4952831;29;20035;-64
2021/03/23 09:56:54;;;;;;;23.75;9.52;;;12.70;43.00;;;;;;4952471;29;20043;-63
2021/03/23 09:59:30;;;;;;;19.65;9.18;;;12.80;42.60;;;;;;4928715;29;20491;-63
2021/03/23 10:02:23;;;;;;;18.65;8.85;;;13.00;42.30;;;;;;4945903;29;20049;-62
2021/03/23 10:04:49;;;;;;;21.25;9.10;;;13.20;41.00;;;;;;4934879;29;20129;-65
2021/03/23 10:07:29;;;;;;;19.90;9.18;;;13.20;41.90;;;;;;4929671;29;20035;-64
2021/03/23 10:10:25;;;;;;;18.13;9.40;;;13.30;41.00;;;;;;4952033;29;20063;-64
2021/03/23 10:12:53;;;;;;;20.85;9.55;;;13.30;40.90;;;;;;4934975;29;20129;-67
2021/03/23 10:15:39;;;;;;;23.52;10.27;;;13.40;40.80;;;;;;4917644;29;20046;-68
2021/03/23 10:18:23;;;;;;;19.05;9.45;;;13.10;41.00;;;;;;4935233;29;20082;-64
2021/03/23 10:20:57;;;;;;;22.30;9.13;;;12.60;42.40;;;;;;4952728;28;20024;-66
2021/03/23 10:23:26;;;;;;;18.10;9.07;;;12.50;42.90;;;;;;4936010;29;20440;-65
2021/03/23 10:25:52;;;;;;;19.40;9.77;;;12.30;42.50;;;;;;4934798;29;20036;-65
2021/03/23 10:28:30;;;;;;;22.10;9.02;;;12.30;43.00;;;;;;4953108;29;20039;-66
2021/03/23 10:31:02;;;;;;;20.15;9.60;;;12.30;42.90;;;;;;4952668;29;20039;-63
2021/03/23 10:33:33;;;;;;;20.20;9.00;;;12.30;43.10;;;;;;4951611;29;20040;-65
2021/03/23 10:36:01;;;;;;;19.38;9.18;;;12.30;43.00;;;;;;4952047;29;20050;-65
2021/03/23 10:38:27;;;;;;;23.33;9.88;;;12.40;42.60;;;;;;4940588;28;20039;-66
2021/03/23 10:41:01;;;;;;;21.45;9.30;;;12.60;42.40;;;;;;4951957;29;20039;-63
2021/03/23 10:43:37;;;;;;;18.85;9.18;;;12.70;41.90;;;;;;4934896;29;20098;-64
2021/03/23 10:46:22;;;;;;;20.38;9.10;;;12.80;41.00;;;;;;4934813;29;20444;-64
2021/03/23 10:48:49;;;;;;;20.52;8.70;;;12.70;40.70;;;;;;4952491;29;20046;-65
2021/03/23 10:51:26;;;;;;;17.92;8.05;;;12.80;40.00;;;;;;4915545;29;20107;-63
2021/03/23 10:54:06;;;;;;;19.17;8.40;;;12.80;40.00;;;;;;4934137;29;20086;-63
2021/03/23 10:56:37;;;;;;;19.95;8.93;;;12.70;39.70;;;;;;4952217;29;20455;-64
2021/03/23 10:59:10;;;;;;;22.98;8.88;;;12.60;40.10;;;;;;4926041;29;20032;-65
2021/03/23 11:01:38;;;;;;;20.90;9.25;;;12.60;40.30;;;;;;4949742;29;20069;-62
2021/03/23 11:04:18;;;;;;;14.43;8.05;;;12.60;40.20;;;;;;4932990;29;20074;-62
2021/03/23 11:06:44;;;;;;;19.02;9.13;;;12.80;40.20;;;;;;4931541;29;20387;-62
2021/03/23 11:09:16;;;;;;;18.13;8.93;;;12.80;39.80;;;;;;4933340;29;20114;-63
2021/03/23 11:11:42;;;;;;;20.00;10.07;;;12.80;40.10;;;;;;4925485;29;20449;-64
2021/03/23 11:14:08;;;;;;;22.95;9.13;;;12.80;40.00;;;;;;4933784;29;20159;-63
2021/03/23 11:16:36;;;;;;;23.92;9.85;;;12.90;39.70;;;;;;4933735;29;20047;-64
2021/03/23 11:19:04;;;;;;;19.88;10.27;;;12.90;39.90;;;;;;4951288;29;20035;-64
2021/03/23 11:21:45;;;;;;;19.02;10.50;;;12.90;40.10;;;;;;4951954;29;20477;-63
2021/03/23 11:24:11;;;;;;;22.95;12.05;;;12.90;40.40;;;;;;4940283;29;20249;-64
2021/03/23 11:26:39;;;;;;;22.95;11.40;;;12.90;40.60;;;;;;4947279;29;20454;-63
2021/03/23 11:29:06;;;;;;;23.23;11.95;;;13.00;41.30;;;;;;4934379;29;20145;-63
2021/03/23 11:31:35;;;;;;;22.63;12.00;;;13.00;40.20;;;;;;4931693;29;20043;-64
2021/03/23 11:34:01;;;;;;;26.45;12.52;;;12.90;40.20;;;;;;4952680;28;20451;-63
2021/03/23 11:36:29;;;;;;;22.00;11.93;;;12.90;40.10;;;;;;4955620;29;20391;-64
2021/03/23 11:38:55;;;;;;;23.38;12.40;;;13.10;40.00;;;;;;4937339;29;20042;-65
2021/03/23 11:41:34;;;;;;;21.52;11.93;;;13.20;39.80;;;;;;4937851;29;20043;-63
2021/03/23 11:44:37;;;;;;;25.20;11.80;;;13.40;40.40;;;;;;4954728;29;20467;-64
2021/03/23 11:47:40;;;;;;;26.15;12.82;;;13.10;42.30;;;;;;4905031;29;20144;-64
2021/03/23 11:50:10;;;;;;;26.75;11.32;;;12.80;42.00;;;;;;4932347;29;20387;-63
2021/03/23 11:52:36;;;;;;;22.65;10.95;;;12.70;44.40;;;;;;4954819;29;20051;-65
2021/03/23 11:55:08;;;;;;;21.38;10.48;;;12.50;44.80;;;;;;4955116;28;20115;-65
2021/03/23 11:57:35;;;;;;;23.60;11.25;;;12.30;46.20;;;;;;4952324;29;20059;-64
2021/03/23 12:00:02;;;;;;;20.52;10.93;;;12.00;47.00;;;;;;4921025;29;20373;-66
2021/03/23 12:02:29;;;;;;;20.52;11.55;;;11.80;47.20;;;;;;4937674;29;20053;-65
2021/03/23 12:04:56;;;;;;;24.25;10.80;;;11.60;47.90;;;;;;4936568;28;20130;-62
2021/03/23 12:07:34;;;;;;;21.65;10.88;;;11.50;48.30;;;;;;4962461;28;20099;-62
2021/03/23 12:10:13;;;;;;;25.95;10.43;;;11.40;49.40;;;;;;4967387;28;20056;-63
2021/03/23 12:13:05;;;;;;;25.02;10.93;;;11.00;50.10;;;;;;4952730;29;20058;-63
2021/03/23 12:15:45;;;;;;;29.27;12.23;;;11.10;50.30;;;;;;4915284;29;20166;-63
2021/03/23 12:18:15;;;;;;;25.90;12.27;;;11.00;50.60;;;;;;4954336;29;20043;-63
2021/03/23 12:20:42;;;;;;;25.08;10.95;;;11.20;50.70;;;;;;4937435;29;20082;-64
2021/03/23 12:23:09;;;;;;;21.17;11.45;;;11.10;51.20;;;;;;4953910;29;20046;-63
2021/03/23 12:25:35;;;;;;;21.55;11.32;;;10.90;51.60;;;;;;4937760;29;20046;-64
2021/03/23 12:28:01;;;;;;;18.15;11.00;;;10.90;51.90;;;;;;4937485;29;20063;-63
2021/03/23 12:30:27;;;;;;;18.17;10.02;;;10.90;51.40;;;;;;4954999;29;20145;-63
2021/03/23 12:32:56;;;;;;;15.77;10.88;;;10.80;50.10;;;;;;4927557;29;20059;-62
2021/03/23 12:35:28;;;;;;;21.73;11.25;;;10.80;50.90;;;;;;4949996;29;20031;-63
2021/03/23 12:38:00;;;;;;;25.75;10.93;;;10.70;51.80;;;;;;4954077;29;20028;-62
2021/03/23 12:40:27;;;;;;;17.77;10.45;;;10.70;51.50;;;;;;4937911;29;20035;-63
2021/03/23 12:42:55;;;;;;;20.77;10.98;;;10.60;50.80;;;;;;4936960;29;20039;-63
2021/03/23 12:45:30;;;;;;;20.70;11.10;;;10.70;50.70;;;;;;4937491;29;20054;-62
2021/03/23 12:47:56;;;;;;;23.67;11.93;;;10.90;50.60;;;;;;4936390;29;20066;-62
2021/03/23 12:50:25;;;;;;;21.88;11.48;;;11.00;50.70;;;;;;4954389;29;20046;-61
2021/03/23 12:52:54;;;;;;;16.08;11.20;;;11.10;49.90;;;;;;4951863;29;20043;-65
2021/03/23 12:55:29;;;;;;;16.73;10.80;;;11.10;49.30;;;;;;4934860;29;20452;-63
2021/03/23 12:58:01;;;;;;;18.38;10.73;;;11.20;49.00;;;;;;4953634;29;20039;-64
2021/03/23 13:00:33;;;;;;;15.27;10.98;;;11.30;48.70;;;;;;4954166;29;20043;-62
2021/03/23 13:03:00;;;;;;;23.48;10.70;;;11.30;48.20;;;;;;4953033;29;20046;-61
2021/03/23 13:05:26;;;;;;;16.40;9.95;;;11.30;48.20;;;;;;4942828;29;20484;-64
2021/03/23 13:07:54;;;;;;;22.83;10.98;;;11.30;48.00;;;;;;4954212;29;20054;-66
2021/03/23 13:10:30;;;;;;;18.70;10.38;;;11.30;48.10;;;;;;4935304;29;20046;-62
2021/03/23 13:12:58;;;;;;;21.73;10.32;;;11.20;48.30;;;;;;4953820;29;20045;-62
2021/03/23 13:15:26;;;;;;;16.80;10.55;;;11.40;48.10;;;;;;4936586;29;20046;-62
2021/03/23 13:17:52;;;;;;;16.50;10.35;;;11.50;47.80;;;;;;4953445;29;20035;-63
2021/03/23 13:20:19;;;;;;;21.65;10.35;;;11.50;47.70;;;;;;4936774;29;20042;-63
2021/03/23 13:22:53;;;;;;;19.63;10.20;;;11.40;47.70;;;;;;4935848;29;20089;-63
2021/03/23 13:25:37;;;;;;;21.38;9.80;;;11.30;47.90;;;;;;4953862;29;20110;-63
2021/03/23 13:28:25;;;;;;;25.45;12.30;;;11.30;48.20;;;;;;4931965;29;20487;-62
2021/03/23 13:30:52;;;;;;;17.92;11.10;;;11.20;48.40;;;;;;4930658;29;20039;-63
2021/03/23 13:33:18;;;;;;;26.55;11.18;;;11.40;48.20;;;;;;4951913;29;20071;-63
2021/03/23 13:35:45;;;;;;;22.17;11.45;;;11.50;48.00;;;;;;4933828;28;20075;-63
2021/03/23 13:38:16;;;;;;;19.58;10.40;;;11.40;48.00;;;;;;4955024;28;20042;-63
2021/03/23 13:40:45;;;;;;;24.98;10.75;;;11.20;48.50;;;;;;4952655;28;20054;-62
2021/03/23 13:43:15;;;;;;;20.90;10.45;;;11.10;49.00;;;;;;4955732;28;20065;-63
2021/03/23 13:45:48;;;;;;;20.73;10.43;;;11.20;48.80;;;;;;4946326;28;20080;-63
2021/03/23 13:48:22;;;;;;;17.27;9.68;;;11.30;48.60;;;;;;4937362;28;20047;-63
2021/03/23 13:50:49;;;;;;;18.17;8.77;;;11.20;48.80;;;;;;4936889;28;20038;-63
2021/03/23 13:53:18;;;;;;;15.50;8.50;;;11.00;49.40;;;;;;4954731;28;20031;-64
2021/03/23 13:55:45;;;;;;;14.20;9.20;;;11.00;49.60;;;;;;4940081;28;20027;-64
2021/03/23 13:58:12;;;;;;;17.48;9.85;;;10.90;49.60;;;;;;4947013;28;20094;-63
2021/03/23 14:00:44;;;;;;;17.98;9.40;;;11.00;49.60;;;;;;4935859;29;20539;-65
2021/03/23 14:03:10;;;;;;;17.52;9.20;;;11.00;49.80;;;;;;4933106;29;20104;-64
2021/03/23 14:05:37;;;;;;;15.13;8.98;;;10.90;50.10;;;;;;4953026;29;20035;-62
2021/03/23 14:08:07;;;;;;;15.88;9.25;;;10.90;50.10;;;;;;4935021;29;20039;-65
2021/03/23 14:10:34;;;;;;;14.95;8.60;;;10.90;50.20;;;;;;4932365;29;20063;-65
2021/03/23 14:13:00;;;;;;;16.77;8.77;;;10.80;50.50;;;;;;4952527;29;20122;-64
2021/03/23 14:15:33;;;;;;;13.20;8.55;;;10.70;50.90;;;;;;4950269;29;20046;-63
2021/03/23 14:17:59;;;;;;;17.77;9.52;;;10.70;51.10;;;;;;4953122;29;20067;-63
2021/03/23 14:20:27;;;;;;;19.88;9.70;;;10.80;51.00;;;;;;4953240;29;20626;-64
2021/03/23 14:22:55;;;;;;;16.35;9.68;;;11.00;50.70;;;;;;4953449;29;20455;-64
2021/03/23 14:25:24;;;;;;;14.73;8.48;;;11.00;50.30;;;;;;4934346;29;20042;-64
2021/03/23 14:27:50;;;;;;;15.52;8.88;;;11.10;50.00;;;;;;4953396;29;20035;-62
2021/03/23 14:30:22;;;;;;;14.85;9.48;;;11.10;50.10;;;;;;4951314;29;20039;-63
2021/03/23 14:32:48;;;;;;;15.32;8.80;;;10.90;50.60;;;;;;4930837;29;20058;-63
2021/03/23 14:35:16;;;;;;;18.42;9.20;;;11.00;50.50;;;;;;4935446;29;20326;-63
2021/03/23 14:37:46;;;;;;;14.55;9.18;;;11.00;50.40;;;;;;4935739;29;20043;-65
2021/03/23 14:40:27;;;;;;;14.57;8.05;;;11.20;50.10;;;;;;4952576;29;20074;-66
2021/03/23 14:42:55;;;;;;;17.05;8.63;;;11.10;50.20;;;;;;4950831;29;20098;-63
2021/03/23 14:45:28;;;;;;;19.88;8.57;;;10.90;50.80;;;;;;4935078;29;20134;-62
2021/03/23 14:47:54;;;;;;;14.98;8.80;;;10.90;51.10;;;;;;4932091;29;20039;-64
2021/03/23 14:50:20;;;;;;;13.95;8.25;;;10.90;51.00;;;;;;4934335;29;20130;-63
2021/03/23 14:52:47;;;;;;;15.48;8.38;;;11.00;51.00;;;;;;4934602;29;20388;-62
2021/03/23 14:55:19;;;;;;;16.00;8.98;;;11.10;50.50;;;;;;4952235;29;20036;-65
2021/03/23 14:57:46;;;;;;;14.75;9.52;;;11.30;50.20;;;;;;4953560;29;20039;-63
2021/03/23 15:00:26;;;;;;;15.13;9.07;;;11.30;50.10;;;;;;4935278;29;20480;-64
2021/03/23 15:02:55;;;;;;;17.05;8.60;;;11.30;50.10;;;;;;4934621;29;20463;-63
2021/03/23 15:05:21;;;;;;;14.23;8.15;;;11.30;50.10;;;;;;4934285;29;20133;-64
2021/03/23 15:07:48;;;;;;;19.25;10.68;;;11.40;49.90;;;;;;4937148;29;20038;-64
2021/03/23 15:10:43;;;;;;;19.35;9.32;;;11.50;49.60;;;;;;4935402;29;20395;-63
2021/03/23 15:13:22;;;;;;;17.33;8.98;;;11.40;49.30;;;;;;4953223;29;20058;-63
2021/03/23 15:15:49;;;;;;;19.10;8.52;;;11.30;49.60;;;;;;4935149;29;20046;-63
2021/03/23 15:18:16;;;;;;;15.88;8.48;;;11.40;49.50;;;;;;4952897;29;20113;-63
2021/03/23 15:20:42;;;;;;;15.00;8.43;;;11.30;50.20;;;;;;4956611;29;20028;-64
2021/03/23 15:23:23;;;;;;;14.20;8.60;;;11.30;49.40;;;;;;4938538;29;20070;-64
2021/03/23 15:25:49;;;;;;;13.05;8.57;;;11.30;49.50;;;;;;4949324;29;20066;-65
2021/03/23 15:28:15;;;;;;;16.45;9.38;;;11.20;49.60;;;;;;4937614;29;20075;-63
2021/03/23 15:30:41;;;;;;;16.52;8.68;;;11.10;50.00;;;;;;4937272;29;20448;-64
2021/03/23 15:33:07;;;;;;;15.35;9.25;;;11.10;50.40;;;;;;4937264;29;20098;-63
2021/03/23 15:35:33;;;;;;;13.70;9.05;;;10.90;50.80;;;;;;4954280;29;20135;-62
2021/03/23 15:37:59;;;;;;;13.13;8.43;;;10.80;51.00;;;;;;4940344;29;20106;-63
2021/03/23 15:40:28;;;;;;;12.75;8.63;;;10.80;51.10;;;;;;4950083;29;20066;-64
2021/03/23 15:42:57;;;;;;;18.67;9.30;;;10.80;51.30;;;;;;4954162;29;20094;-63
2021/03/23 15:45:26;;;;;;;21.42;9.43;;;10.70;51.50;;;;;;4953247;28;20130;-63
2021/03/23 15:47:52;;;;;;;15.07;8.65;;;10.70;51.50;;;;;;4938645;29;20035;-62
2021/03/23 15:50:24;;;;;;;17.05;9.27;;;10.70;51.70;;;;;;4928671;29;20120;-63
2021/03/23 15:52:51;;;;;;;13.65;8.68;;;10.80;51.60;;;;;;4949720;29;20126;-61
2021/03/23 15:55:36;;;;;;;18.15;10.05;;;10.80;51.70;;;;;;4937595;29;20599;-61
2021/03/23 15:58:03;;;;;;;15.43;9.13;;;10.70;52.70;;;;;;4944722;29;20054;-63
2021/03/23 16:00:33;;;;;;;18.55;9.52;;;10.50;53.90;;;;;;4938235;29;20035;-62
2021/03/23 16:03:00;;;;;;;20.17;9.63;;;10.20;55.90;;;;;;4933882;29;20043;-66
2021/03/23 16:05:28;;;;;;;18.65;9.48;;;10.00;57.00;;;;;;4935104;29;20100;-62
2021/03/23 16:07:58;;;;;;;16.45;9.13;;;9.90;57.90;;;;;;4937424;29;20032;-62
2021/03/23 16:10:26;;;;;;;14.65;8.95;;;9.70;58.70;;;;;;4937936;29;20350;-63
2021/03/23 16:12:52;;;;;;;17.55;9.70;;;9.60;59.20;;;;;;4938137;29;20109;-62
2021/03/23 16:15:27;;;;;;;21.65;9.75;;;9.50;59.20;;;;;;4936997;29;20090;-62
2021/03/23 16:17:53;;;;;;;19.13;10.27;;;9.50;59.70;;;;;;4955341;29;20028;-62
2021/03/23 16:20:22;;;;;;;18.92;9.63;;;9.40;59.90;;;;;;4954190;28;20202;-63
2021/03/23 16:22:49;;;;;;;19.45;10.05;;;9.40;60.00;;;;;;4938370;29;20050;-62
2021/03/23 16:25:25;;;;;;;19.45;9.57;;;9.50;60.00;;;;;;4937567;29;20106;-62
2021/03/23 16:27:57;;;;;;;17.67;10.02;;;9.50;60.20;;;;;;4937778;29;20031;-62
2021/03/23 16:30:24;;;;;;;15.93;9.95;;;9.30;60.40;;;;;;4934742;29;20043;-63
2021/03/23 16:32:52;;;;;;;20.67;11.13;;;9.30;60.50;;;;;;4951628;29;20039;-64
2021/03/23 16:35:33;;;;;;;25.10;13.43;;;9.40;60.30;;;;;;4941293;29;20049;-62
2021/03/23 16:38:00;;;;;;;21.30;12.18;;;9.50;60.20;;;;;;4955099;29;20031;-63
2021/03/23 16:40:31;;;;;;;22.30;11.20;;;9.50;59.90;;;;;;4948301;29;20049;-63
2021/03/23 16:42:59;;;;;;;15.30;10.15;;;9.60;59.90;;;;;;4927787;29;20038;-63
2021/03/23 16:45:31;;;;;;;19.77;10.88;;;9.60;59.70;;;;;;4949022;29;20122;-64
2021/03/23 16:47:58;;;;;;;19.95;10.32;;;9.60;59.60;;;;;;4955422;29;20045;-63
2021/03/23 16:50:26;;;;;;;17.08;10.00;;;9.50;59.50;;;;;;4937225;29;20040;-63
2021/03/23 16:52:52;;;;;;;17.35;9.93;;;9.60;59.60;;;;;;4948849;29;20043;-62
2021/03/23 16:55:29;;;;;;;20.33;10.45;;;9.70;59.40;;;;;;4946144;29;20032;-63
2021/03/23 16:57:56;;;;;;;19.70;10.15;;;9.60;59.20;;;;;;4930818;29;20384;-62
2021/03/23 17:00:25;;;;;;;21.45;10.20;;;9.60;59.50;;;;;;4934842;29;20065;-62
2021/03/23 17:02:51;;;;;;;16.90;10.60;;;9.70;59.00;;;;;;4921884;23;20068;-71
2021/03/23 17:05:18;;;;;;;16.13;9.82;;;9.70;58.50;;;;;;4929784;29;20036;-70
2021/03/23 17:07:44;;;;;;;16.77;9.63;;;9.80;58.20;;;;;;4934007;29;20359;-64
2021/03/23 17:10:13;;;;;;;16.33;10.40;;;9.90;57.80;;;;;;4909961;29;20036;-64
2021/03/23 17:12:39;;;;;;;16.33;9.52;;;9.90;57.40;;;;;;4931873;29;20042;-65
2021/03/23 17:15:10;;;;;;;15.98;9.98;;;10.00;56.90;;;;;;4934548;29;20102;-65
2021/03/23 17:17:37;;;;;;;15.98;9.50;;;10.00;56.00;;;;;;4931051;29;20028;-64
2021/03/23 17:20:06;;;;;;;19.73;10.57;;;10.00;55.60;;;;;;4931605;29;20555;-65
2021/03/23 17:22:31;;;;;;;13.82;8.93;;;10.00;56.00;;;;;;4914547;29;20047;-64
2021/03/23 17:24:57;;;;;;;12.88;9.15;;;10.00;56.00;;;;;;4915072;29;20024;-65
2021/03/23 17:27:28;;;;;;;14.45;9.35;;;10.00;55.90;;;;;;4930646;29;20253;-64
2021/03/23 17:29:58;;;;;;;16.92;10.48;;;10.00;55.50;;;;;;4916373;29;20062;-63
2021/03/23 17:32:25;;;;;;;16.73;9.38;;;10.00;55.50;;;;;;4912382;29;20291;-64
2021/03/23 17:34:51;;;;;;;15.38;9.48;;;10.10;55.30;;;;;;4912940;29;20210;-67
2021/03/23 17:37:18;;;;;;;18.42;9.75;;;10.10;55.10;;;;;;4904806;29;20040;-65
2021/03/23 17:39:44;;;;;;;15.90;10.30;;;10.20;54.80;;;;;;4934363;29;20043;-64
2021/03/23 17:42:11;;;;;;;15.98;10.63;;;10.20;54.40;;;;;;4912856;29;20118;-66
2021/03/23 17:44:37;;;;;;;16.40;9.40;;;10.20;54.40;;;;;;4934495;29;20079;-64
2021/03/23 17:47:04;;;;;;;17.55;9.35;;;10.20;54.10;;;;;;4932540;29;20093;-64
2021/03/23 17:49:30;;;;;;;18.33;10.30;;;10.20;53.90;;;;;;4931846;29;20062;-65
2021/03/23 17:51:56;;;;;;;16.75;10.02;;;10.20;53.80;;;;;;4929279;29;20072;-65
2021/03/23 17:54:23;;;;;;;15.75;11.05;;;10.20;53.80;;;;;;4901043;29;20036;-65
2021/03/23 17:56:49;;;;;;;20.00;10.18;;;10.30;53.60;;;;;;4915856;29;20077;-65
2021/03/23 17:59:15;;;;;;;14.10;10.38;;;10.30;53.30;;;;;;4907755;29;20075;-71
2021/03/23 18:01:40;;;;;;;14.57;9.90;;;10.20;53.20;;;;;;4924356;29;20063;-70
2021/03/23 18:04:07;;;;;;;14.70;10.40;;;10.30;53.10;;;;;;4918477;29;20040;-76
2021/03/23 18:06:33;;;;;;;16.67;10.30;;;10.20;53.10;;;;;;4903188;29;20066;-65
2021/03/23 18:08:59;;;;;;;17.88;10.73;;;10.30;53.20;;;;;;4927221;29;20028;-71
2021/03/23 18:11:25;;;;;;;17.20;9.85;;;10.30;53.30;;;;;;4917528;29;20086;-69
2021/03/23 18:13:51;;;;;;;14.82;9.82;;;10.20;53.30;;;;;;4902833;29;20094;-71
2021/03/23 18:16:16;;;;;;;12.95;9.65;;;10.20;53.50;;;;;;4931771;29;20362;-67
2021/03/23 18:18:43;;;;;;;13.38;9.98;;;10.10;53.90;;;;;;4930823;29;20163;-69
2021/03/23 18:21:09;;;;;;;16.65;10.85;;;10.10;54.10;;;;;;4933227;29;20115;-70
2021/03/23 18:23:35;;;;;;;15.40;10.38;;;10.10;54.20;;;;;;4934376;29;20855;-63
2021/03/23 18:26:01;;;;;;;18.42;9.82;;;10.10;54.40;;;;;;4913591;29;20079;-64
2021/03/23 18:28:27;;;;;;;17.58;10.90;;;10.10;54.40;;;;;;4913901;29;20044;-65
2021/03/23 18:30:53;;;;;;;20.73;10.05;;;10.10;55.00;;;;;;4932071;29;20481;-69
2021/03/23 18:33:26;;;;;;;16.27;10.27;;;10.10;54.50;;;;;;4927160;29;20039;-64
2021/03/23 18:35:52;;;;;;;14.65;10.40;;;10.10;54.80;;;;;;4928036;29;20038;-64
2021/03/23 18:38:20;;;;;;;18.00;10.40;;;10.10;55.00;;;;;;4933068;29;20071;-69
2021/03/23 18:40:49;;;;;;;18.60;10.15;;;10.10;55.10;;;;;;4916491;29;20130;-69
2021/03/23 18:43:15;;;;;;;14.70;10.00;;;10.10;55.10;;;;;;4903914;29;20059;-65
2021/03/23 18:45:42;;;;;;;18.40;9.82;;;10.10;55.10;;;;;;4936985;29;20047;-65
2021/03/23 18:48:10;;;;;;;17.15;10.82;;;10.10;55.20;;;;;;4937527;29;20036;-61
2021/03/23 18:50:36;;;;;;;14.77;9.85;;;10.00;55.30;;;;;;4933021;29;20040;-61
2021/03/23 18:53:04;;;;;;;18.60;10.77;;;9.90;55.40;;;;;;4933629;29;20098;-67
2021/03/23 18:55:36;;;;;;;13.80;9.20;;;10.00;55.40;;;;;;4887059;29;20074;-65
2021/03/23 18:58:04;;;;;;;13.93;8.45;;;9.90;55.30;;;;;;4930286;29;20118;-63
2021/03/23 19:00:31;;;;;;;14.38;8.88;;;9.90;55.10;;;;;;4919291;29;20512;-65
2021/03/23 19:02:57;;;;;;;11.13;8.73;;;9.90;55.00;;;;;;4923452;29;20066;-62
2021/03/23 19:05:43;;;;;;;16.98;9.70;;;9.90;54.90;;;;;;4931890;29;20483;-63
2021/03/23 19:08:09;;;;;;;13.65;8.98;;;9.80;55.00;;;;;;4932753;29;20040;-63
2021/03/23 19:10:38;;;;;;;14.27;9.10;;;9.80;54.50;;;;;;4934509;29;20502;-61
2021/03/23 19:13:05;;;;;;;15.70;9.43;;;9.80;54.40;;;;;;4935123;29;20500;-65
2021/03/23 19:15:31;;;;;;;12.98;9.85;;;9.90;54.30;;;;;;4936480;29;20050;-62
2021/03/23 19:17:57;;;;;;;14.23;10.45;;;9.90;54.50;;;;;;4922137;29;20031;-64
2021/03/23 19:20:29;;;;;;;17.00;11.07;;;9.90;54.50;;;;;;4936349;29;20240;-63
2021/03/23 19:22:58;;;;;;;18.63;10.30;;;9.90;54.40;;;;;;4937458;29;20040;-62
2021/03/23 19:25:23;;;;;;;16.65;11.27;;;9.90;54.40;;;;;;4918906;29;20048;-62
2021/03/23 19:27:49;;;;;;;20.77;11.43;;;10.00;54.50;;;;;;4934821;29;20031;-63
2021/03/23 19:30:18;;;;;;;12.82;10.10;;;10.00;54.50;;;;;;4936666;29;20071;-62
2021/03/23 19:32:44;;;;;;;15.25;11.20;;;10.00;54.50;;;;;;4937028;29;20040;-65
2021/03/23 19:35:11;;;;;;;16.98;11.20;;;10.00;54.70;;;;;;4936189;29;20036;-65
2021/03/23 19:37:36;;;;;;;18.20;11.57;;;9.90;55.10;;;;;;4915928;29;20535;-64
2021/03/23 19:40:04;;;;;;;16.15;12.02;;;9.90;55.40;;;;;;4936965;29;20056;-64
2021/03/23 19:42:31;;;;;;;16.45;11.18;;;9.80;55.80;;;;;;4920050;29;20118;-66
2021/03/23 19:44:56;;;;;;;17.50;11.60;;;9.80;56.20;;;;;;4933156;29;20027;-65
2021/03/23 19:47:23;;;;;;;20.48;12.40;;;9.80;56.50;;;;;;4918695;29;20208;-62
2021/03/23 19:49:48;;;;;;;17.05;12.43;;;9.70;56.80;;;;;;4946903;29;20039;-65
2021/03/23 19:52:14;;;;;;;21.38;12.98;;;9.70;57.30;;;;;;4910856;29;20044;-64
2021/03/23 19:54:40;;;;;;;18.98;13.27;;;9.60;57.20;;;;;;4932208;29;20567;-62
2021/03/23 19:57:06;;;;;;;19.17;12.90;;;9.70;57.30;;;;;;4919177;29;20477;-65
2021/03/23 19:59:32;;;;;;;19.17;13.05;;;9.70;57.30;;;;;;4918903;29;20152;-66
2021/03/23 20:01:58;;;;;;;19.02;12.77;;;9.80;57.20;;;;;;4936668;29;20061;-62
2021/03/23 20:04:24;;;;;;;18.73;13.48;;;9.80;57.20;;;;;;4935935;29;20118;-63
2021/03/23 20:06:49;;;;;;;18.77;13.18;;;9.80;57.20;;;;;;4932369;29;20472;-63
2021/03/23 20:09:15;;;;;;;18.58;12.82;;;9.70;57.20;;;;;;4929414;29;20055;-64
2021/03/23 20:11:41;;;;;;;16.65;12.68;;;9.80;57.10;;;;;;4932334;29;20465;-65
2021/03/23 20:14:07;;;;;;;22.63;13.30;;;9.80;57.10;;;;;;4929530;29;20075;-62
2021/03/23 20:16:33;;;;;;;23.15;13.50;;;9.80;57.10;;;;;;4913363;29;20036;-63
2021/03/23 20:18:59;;;;;;;17.83;13.20;;;9.80;56.90;;;;;;4930638;29;20039;-65
2021/03/23 20:21:26;;;;;;;18.27;12.43;;;9.80;57.10;;;;;;4931375;29;20037;-63
2021/03/23 20:23:52;;;;;;;18.58;12.07;;;9.70;57.20;;;;;;4933983;29;20071;-62
2021/03/23 20:26:22;;;;;;;17.92;12.65;;;9.70;57.30;;;;;;4915524;29;20123;-64
2021/03/23 20:28:49;;;;;;;21.75;14.15;;;9.60;57.40;;;;;;4915724;29;20042;-64
2021/03/23 20:31:17;;;;;;;19.85;13.38;;;9.70;57.30;;;;;;4916758;29;21343;-63
2021/03/23 20:33:43;;;;;;;22.55;13.55;;;9.70;57.20;;;;;;4930860;29;20099;-62
2021/03/23 20:36:12;;;;;;;18.83;12.73;;;9.80;57.00;;;;;;4932840;29;20055;-62
2021/03/23 20:38:38;;;;;;;19.40;13.35;;;9.80;56.70;;;;;;4911709;29;20066;-63
2021/03/23 20:41:06;;;;;;;17.05;12.98;;;9.80;56.70;;;;;;4912650;29;20457;-68
2021/03/23 20:43:38;;;;;;;16.77;12.48;;;9.70;56.70;;;;;;4930646;29;20408;-62
2021/03/23 20:46:07;;;;;;;19.73;13.50;;;9.70;56.70;;;;;;4927804;29;20035;-65
2021/03/23 20:48:33;;;;;;;19.38;13.55;;;9.70;56.70;;;;;;4931017;29;20043;-61
2021/03/23 20:51:02;;;;;;;17.13;12.55;;;9.60;56.80;;;;;;4915152;29;20044;-65
2021/03/23 20:53:31;;;;;;;20.00;13.65;;;9.50;57.00;;;;;;4923468;29;20183;-62
2021/03/23 20:55:58;;;;;;;17.15;13.25;;;9.50;57.10;;;;;;4925078;29;20042;-64
2021/03/23 20:58:26;;;;;;;19.00;13.32;;;9.50;57.20;;;;;;4928733;29;20280;-64
2021/03/23 21:00:52;;;;;;;22.02;12.90;;;9.60;56.90;;;;;;4925401;29;20472;-64
2021/03/23 21:03:20;;;;;;;17.15;13.43;;;9.60;56.80;;;;;;4915009;29;20066;-64
2021/03/23 21:05:54;;;;;;;21.13;13.07;;;9.60;57.00;;;;;;4916297;29;20036;-64
2021/03/23 21:08:24;;;;;;;25.00;14.18;;;9.60;57.00;;;;;;4927222;29;20031;-62
2021/03/23 21:11:00;;;;;;;19.02;13.43;;;9.50;57.20;;;;;;4923429;29;20040;-65
2021/03/23 21:14:04;;;;;;;19.95;13.07;;;9.50;57.50;;;;;;4915434;29;20560;-64
2021/03/23 21:16:32;;;;;;;19.63;13.07;;;9.50;57.40;;;;;;4900399;29;20035;-64
2021/03/23 21:18:58;;;;;;;19.92;14.30;;;9.40;57.50;;;;;;4912032;29;20035;-64
2021/03/23 21:21:29;;;;;;;18.02;13.35;;;9.40;57.50;;;;;;4914794;29;20308;-66
2021/03/23 21:24:03;;;;;;;19.27;13.45;;;9.40;57.60;;;;;;4913668;29;20039;-65
2021/03/23 21:26:30;;;;;;;18.77;14.07;;;9.40;57.50;;;;;;4914172;29;20036;-66
2021/03/23 21:28:57;;;;;;;20.02;14.52;;;9.40;57.60;;;;;;4914029;29;20038;-63